sensor_id;sensor_type;location;lat;lon;timestamp;P1;durP1;ratioP1;P2;durP2;ratioP2
32485;SDS011;18935;52.236;21.134;2022-09-09T00:04:35;16.52;;;8.52;;
32485;SDS011;18935;52.236;21.134;2022-09-09T00:07:13;17.13;;;9.07;;
32485;SDS011;18935;52.236;21.134;2022-09-09T00:12:58;19.02;;;8.75;;
32485;SDS011;18935;52.236;21.134;2022-09-09T00:15:26;17.67;;;8.88;;
32485;SDS011;18935;52.236;21.134;2022-09-09T00:18:12;20.23;;;8.85;;
32485;SDS011;18935;52.236;21.134;2022-09-09T00:23:27;20.88;;;8.88;;
32485;SDS011;18935;52.236;21.134;2022-09-09T00:31:25;16.83;;;8.00;;
32485;SDS011;18935;52.236;21.134;2022-09-09T00:33:52;15.30;;;8.88;;
32485;SDS011;18935;52.236;21.134;2022-09-09T00:36:21;17.92;;;9.15;;
32485;SDS011;18935;52.236;21.134;2022-09-09T00:38:55;17.63;;;9.77;;
32485;SDS011;18935;52.236;21.134;2022-09-09T00:41:30;17.30;;;8.95;;
32485;SDS011;18935;52.236;21.134;2022-09-09T00:44:03;15.63;;;9.10;;
32485;SDS011;18935;52.236;21.134;2022-09-09T00:49:58;18.75;;;9.40;;
32485;SDS011;18935;52.236;21.134;2022-09-09T00:55:27;23.08;;;10.57;;
32485;SDS011;18935;52.236;21.134;2022-09-09T00:57:57;19.75;;;8.68;;
32485;SDS011;18935;52.236;21.134;2022-09-09T01:00:24;17.35;;;9.10;;
32485;SDS011;18935;52.236;21.134;2022-09-09T01:11:35;19.20;;;9.65;;
32485;SDS011;18935;52.236;21.134;2022-09-09T01:17:12;22.33;;;9.80;;
32485;SDS011;18935;52.236;21.134;2022-09-09T01:22:29;16.17;;;9.82;;
32485;SDS011;18935;52.236;21.134;2022-09-09T01:25:56;17.60;;;9.63;;
32485;SDS011;18935;52.236;21.134;2022-09-09T01:28:35;16.08;;;9.10;;
32485;SDS011;18935;52.236;21.134;2022-09-09T01:31:05;16.15;;;9.65;;
32485;SDS011;18935;52.236;21.134;2022-09-09T01:33:33;22.70;;;10.55;;
32485;SDS011;18935;52.236;21.134;2022-09-09T01:36:13;18.88;;;9.75;;
32485;SDS011;18935;52.236;21.134;2022-09-09T01:38:45;17.92;;;10.00;;
32485;SDS011;18935;52.236;21.134;2022-09-09T01:41:10;22.75;;;10.13;;
32485;SDS011;18935;52.236;21.134;2022-09-09T01:43:36;21.03;;;10.10;;
32485;SDS011;18935;52.236;21.134;2022-09-09T01:46:02;22.77;;;10.30;;
32485;SDS011;18935;52.236;21.134;2022-09-09T01:48:27;17.77;;;10.07;;
32485;SDS011;18935;52.236;21.134;2022-09-09T01:50:54;18.08;;;10.50;;
32485;SDS011;18935;52.236;21.134;2022-09-09T01:53:19;17.35;;;10.75;;
32485;SDS011;18935;52.236;21.134;2022-09-09T01:58:24;17.35;;;10.85;;
32485;SDS011;18935;52.236;21.134;2022-09-09T02:04:17;17.88;;;10.07;;
32485;SDS011;18935;52.236;21.134;2022-09-09T02:06:53;19.88;;;11.15;;
32485;SDS011;18935;52.236;21.134;2022-09-09T02:09:22;20.65;;;10.63;;
32485;SDS011;18935;52.236;21.134;2022-09-09T02:11:49;19.30;;;11.57;;
32485;SDS011;18935;52.236;21.134;2022-09-09T02:14:25;19.27;;;11.45;;
32485;SDS011;18935;52.236;21.134;2022-09-09T02:17:03;21.23;;;11.25;;
32485;SDS011;18935;52.236;21.134;2022-09-09T02:19:36;23.20;;;11.45;;
32485;SDS011;18935;52.236;21.134;2022-09-09T02:22:07;25.30;;;12.32;;
32485;SDS011;18935;52.236;21.134;2022-09-09T02:24:33;23.55;;;11.55;;
32485;SDS011;18935;52.236;21.134;2022-09-09T02:27:01;22.10;;;11.30;;
32485;SDS011;18935;52.236;21.134;2022-09-09T02:29:32;22.30;;;11.77;;
32485;SDS011;18935;52.236;21.134;2022-09-09T02:32:00;17.95;;;11.20;;
32485;SDS011;18935;52.236;21.134;2022-09-09T02:34:29;22.95;;;11.45;;
32485;SDS011;18935;52.236;21.134;2022-09-09T02:36:57;19.45;;;11.98;;
32485;SDS011;18935;52.236;21.134;2022-09-09T02:39:25;31.00;;;12.73;;
32485;SDS011;18935;52.236;21.134;2022-09-09T02:41:51;22.90;;;12.48;;
32485;SDS011;18935;52.236;21.134;2022-09-09T02:44:17;22.60;;;12.00;;
32485;SDS011;18935;52.236;21.134;2022-09-09T02:46:51;19.75;;;11.85;;
32485;SDS011;18935;52.236;21.134;2022-09-09T02:49:55;24.23;;;12.00;;
32485;SDS011;18935;52.236;21.134;2022-09-09T02:55:29;19.40;;;12.75;;
32485;SDS011;18935;52.236;21.134;2022-09-09T02:58:08;21.98;;;12.30;;
32485;SDS011;18935;52.236;21.134;2022-09-09T03:00:37;20.65;;;12.30;;
32485;SDS011;18935;52.236;21.134;2022-09-09T03:03:04;22.35;;;12.50;;
32485;SDS011;18935;52.236;21.134;2022-09-09T03:05:31;20.48;;;11.77;;
32485;SDS011;18935;52.236;21.134;2022-09-09T03:07:57;20.55;;;12.02;;
32485;SDS011;18935;52.236;21.134;2022-09-09T03:10:22;21.27;;;12.38;;
32485;SDS011;18935;52.236;21.134;2022-09-09T03:12:48;20.02;;;11.10;;
32485;SDS011;18935;52.236;21.134;2022-09-09T03:15:15;21.00;;;11.80;;
32485;SDS011;18935;52.236;21.134;2022-09-09T03:17:40;17.88;;;12.02;;
32485;SDS011;18935;52.236;21.134;2022-09-09T03:20:06;19.27;;;12.07;;
32485;SDS011;18935;52.236;21.134;2022-09-09T03:22:33;21.02;;;11.60;;
32485;SDS011;18935;52.236;21.134;2022-09-09T03:24:58;21.02;;;11.32;;
32485;SDS011;18935;52.236;21.134;2022-09-09T03:27:24;18.65;;;11.13;;
32485;SDS011;18935;52.236;21.134;2022-09-09T03:29:49;26.67;;;13.10;;
32485;SDS011;18935;52.236;21.134;2022-09-09T03:32:17;19.42;;;11.77;;
32485;SDS011;18935;52.236;21.134;2022-09-09T03:34:43;18.23;;;10.93;;
32485;SDS011;18935;52.236;21.134;2022-09-09T03:37:14;18.70;;;11.02;;
32485;SDS011;18935;52.236;21.134;2022-09-09T03:39:39;19.20;;;10.75;;
32485;SDS011;18935;52.236;21.134;2022-09-09T03:42:05;18.80;;;11.17;;
32485;SDS011;18935;52.236;21.134;2022-09-09T03:44:30;17.90;;;10.50;;
32485;SDS011;18935;52.236;21.134;2022-09-09T03:46:56;18.00;;;10.98;;
32485;SDS011;18935;52.236;21.134;2022-09-09T03:49:21;16.15;;;9.82;;
32485;SDS011;18935;52.236;21.134;2022-09-09T03:51:47;16.55;;;10.50;;
32485;SDS011;18935;52.236;21.134;2022-09-09T03:54:13;15.27;;;9.77;;
32485;SDS011;18935;52.236;21.134;2022-09-09T03:56:38;20.87;;;10.83;;
32485;SDS011;18935;52.236;21.134;2022-09-09T03:59:04;15.90;;;10.07;;
32485;SDS011;18935;52.236;21.134;2022-09-09T04:01:29;15.27;;;9.88;;
32485;SDS011;18935;52.236;21.134;2022-09-09T04:03:55;16.55;;;10.18;;
32485;SDS011;18935;52.236;21.134;2022-09-09T04:06:23;14.73;;;9.57;;
32485;SDS011;18935;52.236;21.134;2022-09-09T04:08:49;15.30;;;9.70;;
32485;SDS011;18935;52.236;21.134;2022-09-09T04:11:15;16.98;;;9.90;;
32485;SDS011;18935;52.236;21.134;2022-09-09T04:13:41;16.83;;;9.55;;
32485;SDS011;18935;52.236;21.134;2022-09-09T04:16:06;14.00;;;9.00;;
32485;SDS011;18935;52.236;21.134;2022-09-09T04:18:34;13.40;;;9.10;;
32485;SDS011;18935;52.236;21.134;2022-09-09T04:20:59;15.38;;;9.48;;
32485;SDS011;18935;52.236;21.134;2022-09-09T04:23:26;13.88;;;8.98;;
32485;SDS011;18935;52.236;21.134;2022-09-09T04:25:54;15.25;;;8.65;;
32485;SDS011;18935;52.236;21.134;2022-09-09T04:28:22;13.07;;;7.90;;
32485;SDS011;18935;52.236;21.134;2022-09-09T04:30:49;14.80;;;8.95;;
32485;SDS011;18935;52.236;21.134;2022-09-09T04:33:15;16.38;;;8.30;;
32485;SDS011;18935;52.236;21.134;2022-09-09T04:35:45;14.43;;;8.50;;
32485;SDS011;18935;52.236;21.134;2022-09-09T04:38:12;13.23;;;8.15;;
32485;SDS011;18935;52.236;21.134;2022-09-09T04:40:38;12.38;;;8.00;;
32485;SDS011;18935;52.236;21.134;2022-09-09T04:43:08;11.63;;;8.50;;
32485;SDS011;18935;52.236;21.134;2022-09-09T04:45:34;13.88;;;8.30;;
32485;SDS011;18935;52.236;21.134;2022-09-09T04:47:59;12.27;;;8.15;;
32485;SDS011;18935;52.236;21.134;2022-09-09T04:50:24;17.40;;;8.10;;
32485;SDS011;18935;52.236;21.134;2022-09-09T04:52:50;15.35;;;7.90;;
32485;SDS011;18935;52.236;21.134;2022-09-09T04:55:15;13.03;;;7.87;;
32485;SDS011;18935;52.236;21.134;2022-09-09T04:57:41;10.48;;;7.03;;
32485;SDS011;18935;52.236;21.134;2022-09-09T05:00:06;13.75;;;7.80;;
32485;SDS011;18935;52.236;21.134;2022-09-09T05:02:32;11.88;;;7.43;;
32485;SDS011;18935;52.236;21.134;2022-09-09T05:04:58;11.77;;;7.22;;
32485;SDS011;18935;52.236;21.134;2022-09-09T05:07:27;12.63;;;6.80;;
32485;SDS011;18935;52.236;21.134;2022-09-09T05:09:56;11.48;;;7.35;;
32485;SDS011;18935;52.236;21.134;2022-09-09T05:12:21;10.30;;;6.88;;
32485;SDS011;18935;52.236;21.134;2022-09-09T05:14:48;10.63;;;6.90;;
32485;SDS011;18935;52.236;21.134;2022-09-09T05:17:13;10.93;;;7.23;;
32485;SDS011;18935;52.236;21.134;2022-09-09T05:19:40;9.30;;;6.65;;
32485;SDS011;18935;52.236;21.134;2022-09-09T05:22:05;10.27;;;7.00;;
32485;SDS011;18935;52.236;21.134;2022-09-09T05:24:30;10.82;;;7.18;;
32485;SDS011;18935;52.236;21.134;2022-09-09T05:26:58;13.63;;;7.05;;
32485;SDS011;18935;52.236;21.134;2022-09-09T05:29:24;9.98;;;6.65;;
32485;SDS011;18935;52.236;21.134;2022-09-09T05:31:51;11.60;;;6.88;;
32485;SDS011;18935;52.236;21.134;2022-09-09T05:34:16;12.60;;;7.22;;
32485;SDS011;18935;52.236;21.134;2022-09-09T05:36:42;11.43;;;7.07;;
32485;SDS011;18935;52.236;21.134;2022-09-09T05:39:07;10.23;;;7.27;;
32485;SDS011;18935;52.236;21.134;2022-09-09T05:41:32;8.57;;;6.25;;
32485;SDS011;18935;52.236;21.134;2022-09-09T05:44:00;10.05;;;6.28;;
32485;SDS011;18935;52.236;21.134;2022-09-09T05:46:30;9.48;;;6.22;;
32485;SDS011;18935;52.236;21.134;2022-09-09T05:48:55;8.70;;;6.82;;
32485;SDS011;18935;52.236;21.134;2022-09-09T05:51:24;10.70;;;6.72;;
32485;SDS011;18935;52.236;21.134;2022-09-09T05:53:51;10.52;;;6.25;;
32485;SDS011;18935;52.236;21.134;2022-09-09T05:56:18;10.93;;;6.30;;
32485;SDS011;18935;52.236;21.134;2022-09-09T05:58:46;9.88;;;7.05;;
32485;SDS011;18935;52.236;21.134;2022-09-09T06:01:18;11.83;;;6.83;;
32485;SDS011;18935;52.236;21.134;2022-09-09T06:03:53;10.13;;;6.50;;
32485;SDS011;18935;52.236;21.134;2022-09-09T06:06:20;12.60;;;8.25;;
32485;SDS011;18935;52.236;21.134;2022-09-09T06:08:48;12.98;;;7.30;;
32485;SDS011;18935;52.236;21.134;2022-09-09T06:13:43;9.88;;;7.07;;
32485;SDS011;18935;52.236;21.134;2022-09-09T06:16:09;9.57;;;6.85;;
32485;SDS011;18935;52.236;21.134;2022-09-09T06:18:39;11.30;;;6.78;;
32485;SDS011;18935;52.236;21.134;2022-09-09T06:21:08;9.32;;;7.22;;
32485;SDS011;18935;52.236;21.134;2022-09-09T06:23:36;10.05;;;7.80;;
32485;SDS011;18935;52.236;21.134;2022-09-09T06:26:09;11.02;;;8.07;;
32485;SDS011;18935;52.236;21.134;2022-09-09T06:28:39;11.95;;;7.72;;
32485;SDS011;18935;52.236;21.134;2022-09-09T06:31:08;11.88;;;8.30;;
32485;SDS011;18935;52.236;21.134;2022-09-09T06:33:37;13.27;;;8.40;;
32485;SDS011;18935;52.236;21.134;2022-09-09T06:36:07;12.02;;;8.18;;
32485;SDS011;18935;52.236;21.134;2022-09-09T06:38:36;12.00;;;8.20;;
32485;SDS011;18935;52.236;21.134;2022-09-09T06:41:04;12.95;;;8.50;;
32485;SDS011;18935;52.236;21.134;2022-09-09T06:43:36;12.85;;;8.70;;
32485;SDS011;18935;52.236;21.134;2022-09-09T06:46:06;13.50;;;8.65;;
32485;SDS011;18935;52.236;21.134;2022-09-09T06:48:43;15.18;;;9.30;;
32485;SDS011;18935;52.236;21.134;2022-09-09T06:53:41;13.98;;;9.27;;
32485;SDS011;18935;52.236;21.134;2022-09-09T06:58:45;16.73;;;10.60;;
32485;SDS011;18935;52.236;21.134;2022-09-09T07:01:21;15.57;;;9.30;;
32485;SDS011;18935;52.236;21.134;2022-09-09T07:03:54;14.20;;;9.00;;
32485;SDS011;18935;52.236;21.134;2022-09-09T07:06:21;13.68;;;10.00;;
32485;SDS011;18935;52.236;21.134;2022-09-09T07:08:55;14.95;;;9.82;;
32485;SDS011;18935;52.236;21.134;2022-09-09T07:11:29;12.70;;;9.25;;
32485;SDS011;18935;52.236;21.134;2022-09-09T07:13:57;15.20;;;9.45;;
32485;SDS011;18935;52.236;21.134;2022-09-09T07:16:24;14.95;;;10.23;;
32485;SDS011;18935;52.236;21.134;2022-09-09T07:18:50;15.93;;;10.48;;
32485;SDS011;18935;52.236;21.134;2022-09-09T07:21:17;18.80;;;10.32;;
32485;SDS011;18935;52.236;21.134;2022-09-09T07:23:44;16.33;;;10.02;;
32485;SDS011;18935;52.236;21.134;2022-09-09T07:26:10;14.75;;;10.52;;
32485;SDS011;18935;52.236;21.134;2022-09-09T07:28:41;15.88;;;10.35;;
32485;SDS011;18935;52.236;21.134;2022-09-09T07:31:07;17.30;;;10.38;;
32485;SDS011;18935;52.236;21.134;2022-09-09T07:33:40;15.73;;;10.93;;
32485;SDS011;18935;52.236;21.134;2022-09-09T07:36:07;17.48;;;10.20;;
32485;SDS011;18935;52.236;21.134;2022-09-09T07:38:54;13.77;;;9.55;;
32485;SDS011;18935;52.236;21.134;2022-09-09T07:41:23;15.35;;;10.88;;
32485;SDS011;18935;52.236;21.134;2022-09-09T07:43:50;17.40;;;11.38;;
32485;SDS011;18935;52.236;21.134;2022-09-09T07:46:17;13.63;;;10.60;;
32485;SDS011;18935;52.236;21.134;2022-09-09T07:48:48;16.95;;;11.20;;
32485;SDS011;18935;52.236;21.134;2022-09-09T07:51:37;17.55;;;10.57;;
32485;SDS011;18935;52.236;21.134;2022-09-09T07:54:05;16.20;;;11.20;;
32485;SDS011;18935;52.236;21.134;2022-09-09T07:56:34;14.80;;;10.55;;
32485;SDS011;18935;52.236;21.134;2022-09-09T07:59:01;16.63;;;11.35;;
32485;SDS011;18935;52.236;21.134;2022-09-09T08:01:34;16.65;;;10.95;;
32485;SDS011;18935;52.236;21.134;2022-09-09T08:04:04;15.25;;;11.05;;
32485;SDS011;18935;52.236;21.134;2022-09-09T08:06:34;21.05;;;11.23;;
32485;SDS011;18935;52.236;21.134;2022-09-09T08:09:04;20.88;;;11.82;;
32485;SDS011;18935;52.236;21.134;2022-09-09T08:11:31;17.02;;;10.85;;
32485;SDS011;18935;52.236;21.134;2022-09-09T08:14:04;19.83;;;11.57;;
32485;SDS011;18935;52.236;21.134;2022-09-09T08:16:33;18.33;;;10.65;;
32485;SDS011;18935;52.236;21.134;2022-09-09T08:19:01;18.55;;;12.40;;
32485;SDS011;18935;52.236;21.134;2022-09-09T08:21:29;22.63;;;11.60;;
32485;SDS011;18935;52.236;21.134;2022-09-09T08:23:57;17.38;;;11.57;;
32485;SDS011;18935;52.236;21.134;2022-09-09T08:26:28;15.00;;;10.95;;
32485;SDS011;18935;52.236;21.134;2022-09-09T08:31:31;20.75;;;11.80;;
32485;SDS011;18935;52.236;21.134;2022-09-09T08:34:02;17.30;;;12.13;;
32485;SDS011;18935;52.236;21.134;2022-09-09T08:36:29;23.00;;;12.70;;
32485;SDS011;18935;52.236;21.134;2022-09-09T08:38:58;21.35;;;12.15;;
32485;SDS011;18935;52.236;21.134;2022-09-09T08:52:45;20.30;;;12.48;;
32485;SDS011;18935;52.236;21.134;2022-09-09T08:55:35;22.73;;;12.75;;
32485;SDS011;18935;52.236;21.134;2022-09-09T08:58:11;22.30;;;13.05;;
32485;SDS011;18935;52.236;21.134;2022-09-09T09:00:44;23.10;;;13.88;;
32485;SDS011;18935;52.236;21.134;2022-09-09T09:03:31;19.95;;;14.20;;
32485;SDS011;18935;52.236;21.134;2022-09-09T09:11:53;21.50;;;13.38;;
32485;SDS011;18935;52.236;21.134;2022-09-09T09:14:30;20.15;;;14.10;;
32485;SDS011;18935;52.236;21.134;2022-09-09T09:17:02;20.75;;;13.57;;
32485;SDS011;18935;52.236;21.134;2022-09-09T09:19:32;24.30;;;14.50;;
32485;SDS011;18935;52.236;21.134;2022-09-09T09:22:02;27.13;;;15.88;;
32485;SDS011;18935;52.236;21.134;2022-09-09T09:27:40;25.95;;;14.98;;
32485;SDS011;18935;52.236;21.134;2022-09-09T09:30:18;26.08;;;15.98;;
32485;SDS011;18935;52.236;21.134;2022-09-09T09:33:11;24.27;;;15.32;;
32485;SDS011;18935;52.236;21.134;2022-09-09T09:35:42;28.38;;;16.95;;
32485;SDS011;18935;52.236;21.134;2022-09-09T09:38:16;33.22;;;18.40;;
32485;SDS011;18935;52.236;21.134;2022-09-09T09:40:52;25.00;;;17.88;;
32485;SDS011;18935;52.236;21.134;2022-09-09T09:45:58;24.88;;;15.43;;
32485;SDS011;18935;52.236;21.134;2022-09-09T09:48:25;25.33;;;15.70;;
32485;SDS011;18935;52.236;21.134;2022-09-09T09:51:01;29.48;;;17.73;;
32485;SDS011;18935;52.236;21.134;2022-09-09T09:53:34;26.70;;;16.75;;
32485;SDS011;18935;52.236;21.134;2022-09-09T09:56:04;29.60;;;17.08;;
32485;SDS011;18935;52.236;21.134;2022-09-09T10:01:03;32.75;;;18.15;;
32485;SDS011;18935;52.236;21.134;2022-09-09T10:03:35;28.17;;;17.00;;
32485;SDS011;18935;52.236;21.134;2022-09-09T10:06:05;28.38;;;16.77;;
32485;SDS011;18935;52.236;21.134;2022-09-09T10:08:33;24.92;;;17.08;;
32485;SDS011;18935;52.236;21.134;2022-09-09T10:11:29;27.17;;;16.58;;
32485;SDS011;18935;52.236;21.134;2022-09-09T10:14:27;30.50;;;16.77;;
32485;SDS011;18935;52.236;21.134;2022-09-09T10:20:07;29.38;;;16.35;;
32485;SDS011;18935;52.236;21.134;2022-09-09T10:23:11;24.40;;;15.63;;
32485;SDS011;18935;52.236;21.134;2022-09-09T10:36:50;32.38;;;17.63;;
32485;SDS011;18935;52.236;21.134;2022-09-09T10:39:28;28.27;;;17.00;;
32485;SDS011;18935;52.236;21.134;2022-09-09T10:42:06;28.45;;;18.58;;
32485;SDS011;18935;52.236;21.134;2022-09-09T10:47:36;26.75;;;17.75;;
32485;SDS011;18935;52.236;21.134;2022-09-09T10:56:07;26.77;;;17.90;;
32485;SDS011;18935;52.236;21.134;2022-09-09T10:58:44;31.00;;;17.58;;
32485;SDS011;18935;52.236;21.134;2022-09-09T11:01:19;28.63;;;18.13;;
32485;SDS011;18935;52.236;21.134;2022-09-09T11:03:52;29.23;;;19.38;;
32485;SDS011;18935;52.236;21.134;2022-09-09T11:06:25;29.80;;;19.65;;
32485;SDS011;18935;52.236;21.134;2022-09-09T11:08:58;28.88;;;19.27;;
32485;SDS011;18935;52.236;21.134;2022-09-09T11:11:29;26.70;;;15.97;;
32485;SDS011;18935;52.236;21.134;2022-09-09T11:16:48;34.08;;;21.70;;
32485;SDS011;18935;52.236;21.134;2022-09-09T11:22:15;31.30;;;20.92;;
32485;SDS011;18935;52.236;21.134;2022-09-09T11:24:56;39.33;;;21.67;;
32485;SDS011;18935;52.236;21.134;2022-09-09T11:27:24;35.72;;;21.35;;
32485;SDS011;18935;52.236;21.134;2022-09-09T11:32:52;35.38;;;21.70;;
32485;SDS011;18935;52.236;21.134;2022-09-09T11:35:42;34.90;;;23.25;;
32485;SDS011;18935;52.236;21.134;2022-09-09T11:41:02;35.65;;;23.17;;
32485;SDS011;18935;52.236;21.134;2022-09-09T11:43:33;35.70;;;23.50;;
32485;SDS011;18935;52.236;21.134;2022-09-09T11:46:04;41.60;;;24.50;;
32485;SDS011;18935;52.236;21.134;2022-09-09T11:48:36;36.67;;;23.40;;
32485;SDS011;18935;52.236;21.134;2022-09-09T11:51:25;38.85;;;24.27;;
32485;SDS011;18935;52.236;21.134;2022-09-09T11:53:54;40.25;;;24.10;;
32485;SDS011;18935;52.236;21.134;2022-09-09T11:56:27;38.15;;;24.23;;
32485;SDS011;18935;52.236;21.134;2022-09-09T11:58:54;42.95;;;25.40;;
32485;SDS011;18935;52.236;21.134;2022-09-09T12:04:04;37.35;;;23.65;;
32485;SDS011;18935;52.236;21.134;2022-09-09T12:06:41;44.63;;;25.85;;
32485;SDS011;18935;52.236;21.134;2022-09-09T12:17:19;41.38;;;21.98;;
32485;SDS011;18935;52.236;21.134;2022-09-09T12:19:45;42.97;;;22.95;;
32485;SDS011;18935;52.236;21.134;2022-09-09T12:22:17;42.85;;;23.60;;
32485;SDS011;18935;52.236;21.134;2022-09-09T12:24:54;39.47;;;23.92;;
32485;SDS011;18935;52.236;21.134;2022-09-09T12:30:35;40.30;;;23.98;;
32485;SDS011;18935;52.236;21.134;2022-09-09T12:33:13;40.95;;;23.65;;
32485;SDS011;18935;52.236;21.134;2022-09-09T12:35:42;44.03;;;24.25;;
32485;SDS011;18935;52.236;21.134;2022-09-09T12:38:13;39.78;;;23.30;;
32485;SDS011;18935;52.236;21.134;2022-09-09T12:40:58;44.60;;;25.80;;
32485;SDS011;18935;52.236;21.134;2022-09-09T12:43:24;44.05;;;25.60;;
32485;SDS011;18935;52.236;21.134;2022-09-09T12:45:51;40.38;;;23.23;;
32485;SDS011;18935;52.236;21.134;2022-09-09T12:48:26;39.65;;;23.50;;
32485;SDS011;18935;52.236;21.134;2022-09-09T12:51:02;43.80;;;24.15;;
32485;SDS011;18935;52.236;21.134;2022-09-09T12:53:34;44.28;;;24.48;;
32485;SDS011;18935;52.236;21.134;2022-09-09T12:56:02;56.75;;;31.38;;
32485;SDS011;18935;52.236;21.134;2022-09-09T12:58:33;47.63;;;24.63;;
32485;SDS011;18935;52.236;21.134;2022-09-09T13:00:59;44.50;;;23.65;;
32485;SDS011;18935;52.236;21.134;2022-09-09T13:03:26;41.47;;;24.27;;
32485;SDS011;18935;52.236;21.134;2022-09-09T13:05:52;47.10;;;25.05;;
32485;SDS011;18935;52.236;21.134;2022-09-09T13:08:23;43.17;;;23.30;;
32485;SDS011;18935;52.236;21.134;2022-09-09T13:10:51;42.08;;;23.17;;
32485;SDS011;18935;52.236;21.134;2022-09-09T13:13:27;40.17;;;21.88;;
32485;SDS011;18935;52.236;21.134;2022-09-09T13:16:00;45.63;;;22.48;;
32485;SDS011;18935;52.236;21.134;2022-09-09T13:18:27;39.83;;;22.92;;
32485;SDS011;18935;52.236;21.134;2022-09-09T13:20:55;42.22;;;22.75;;
32485;SDS011;18935;52.236;21.134;2022-09-09T13:23:22;38.65;;;22.35;;
32485;SDS011;18935;52.236;21.134;2022-09-09T13:25:56;41.47;;;21.98;;
32485;SDS011;18935;52.236;21.134;2022-09-09T13:28:25;41.55;;;22.00;;
32485;SDS011;18935;52.236;21.134;2022-09-09T13:31:02;42.45;;;22.77;;
32485;SDS011;18935;52.236;21.134;2022-09-09T13:33:39;41.55;;;23.25;;
32485;SDS011;18935;52.236;21.134;2022-09-09T13:36:05;46.28;;;24.23;;
32485;SDS011;18935;52.236;21.134;2022-09-09T13:38:35;42.40;;;22.83;;
32485;SDS011;18935;52.236;21.134;2022-09-09T13:41:06;42.90;;;24.20;;
32485;SDS011;18935;52.236;21.134;2022-09-09T13:43:37;47.72;;;24.73;;
32485;SDS011;18935;52.236;21.134;2022-09-09T13:48:54;40.08;;;23.52;;
32485;SDS011;18935;52.236;21.134;2022-09-09T13:51:21;43.83;;;23.40;;
32485;SDS011;18935;52.236;21.134;2022-09-09T13:53:55;38.90;;;23.23;;
32485;SDS011;18935;52.236;21.134;2022-09-09T13:56:20;43.77;;;23.83;;
32485;SDS011;18935;52.236;21.134;2022-09-09T13:58:46;38.30;;;21.45;;
32485;SDS011;18935;52.236;21.134;2022-09-09T14:01:11;51.13;;;24.20;;
32485;SDS011;18935;52.236;21.134;2022-09-09T14:03:36;44.92;;;24.45;;
32485;SDS011;18935;52.236;21.134;2022-09-09T14:06:02;48.25;;;24.38;;
32485;SDS011;18935;52.236;21.134;2022-09-09T14:08:28;46.80;;;24.02;;
32485;SDS011;18935;52.236;21.134;2022-09-09T14:11:01;46.90;;;25.48;;
32485;SDS011;18935;52.236;21.134;2022-09-09T14:13:27;45.50;;;24.08;;
32485;SDS011;18935;52.236;21.134;2022-09-09T14:15:52;42.30;;;23.98;;
32485;SDS011;18935;52.236;21.134;2022-09-09T14:18:18;45.58;;;24.30;;
32485;SDS011;18935;52.236;21.134;2022-09-09T14:20:44;45.85;;;25.45;;
32485;SDS011;18935;52.236;21.134;2022-09-09T14:23:10;44.95;;;24.30;;
32485;SDS011;18935;52.236;21.134;2022-09-09T14:25:39;44.65;;;25.95;;
32485;SDS011;18935;52.236;21.134;2022-09-09T14:28:11;44.22;;;25.27;;
32485;SDS011;18935;52.236;21.134;2022-09-09T14:30:41;48.97;;;25.45;;
32485;SDS011;18935;52.236;21.134;2022-09-09T14:33:09;48.67;;;26.65;;
32485;SDS011;18935;52.236;21.134;2022-09-09T14:35:38;47.17;;;24.65;;
32485;SDS011;18935;52.236;21.134;2022-09-09T14:38:06;51.75;;;26.88;;
32485;SDS011;18935;52.236;21.134;2022-09-09T14:40:39;44.00;;;24.83;;
32485;SDS011;18935;52.236;21.134;2022-09-09T14:43:04;45.37;;;26.13;;
32485;SDS011;18935;52.236;21.134;2022-09-09T14:45:30;45.10;;;25.48;;
32485;SDS011;18935;52.236;21.134;2022-09-09T14:47:56;44.08;;;24.48;;
32485;SDS011;18935;52.236;21.134;2022-09-09T14:50:22;44.95;;;25.63;;
32485;SDS011;18935;52.236;21.134;2022-09-09T14:52:48;42.13;;;25.17;;
32485;SDS011;18935;52.236;21.134;2022-09-09T14:55:14;44.17;;;24.90;;
32485;SDS011;18935;52.236;21.134;2022-09-09T14:57:40;50.88;;;26.00;;
32485;SDS011;18935;52.236;21.134;2022-09-09T15:00:06;43.95;;;25.42;;
32485;SDS011;18935;52.236;21.134;2022-09-09T15:02:32;48.22;;;24.48;;
32485;SDS011;18935;52.236;21.134;2022-09-09T15:04:57;54.45;;;27.55;;
32485;SDS011;18935;52.236;21.134;2022-09-09T15:07:23;51.42;;;25.88;;
32485;SDS011;18935;52.236;21.134;2022-09-09T15:09:49;48.28;;;25.73;;
32485;SDS011;18935;52.236;21.134;2022-09-09T15:12:15;45.88;;;26.17;;
32485;SDS011;18935;52.236;21.134;2022-09-09T15:14:43;53.22;;;27.08;;
32485;SDS011;18935;52.236;21.134;2022-09-09T15:17:09;48.97;;;25.92;;
32485;SDS011;18935;52.236;21.134;2022-09-09T15:19:36;46.60;;;26.20;;
32485;SDS011;18935;52.236;21.134;2022-09-09T15:22:02;50.95;;;26.73;;
32485;SDS011;18935;52.236;21.134;2022-09-09T15:24:31;45.38;;;25.77;;
32485;SDS011;18935;52.236;21.134;2022-09-09T15:27:03;43.85;;;24.17;;
32485;SDS011;18935;52.236;21.134;2022-09-09T15:29:29;48.20;;;25.75;;
32485;SDS011;18935;52.236;21.134;2022-09-09T15:31:55;42.88;;;25.20;;
32485;SDS011;18935;52.236;21.134;2022-09-09T15:34:21;46.15;;;25.58;;
32485;SDS011;18935;52.236;21.134;2022-09-09T15:36:47;48.55;;;26.52;;
32485;SDS011;18935;52.236;21.134;2022-09-09T15:39:16;51.33;;;26.23;;
32485;SDS011;18935;52.236;21.134;2022-09-09T15:41:44;45.53;;;24.75;;
32485;SDS011;18935;52.236;21.134;2022-09-09T15:44:14;43.67;;;26.17;;
32485;SDS011;18935;52.236;21.134;2022-09-09T15:46:44;47.67;;;25.88;;
32485;SDS011;18935;52.236;21.134;2022-09-09T15:49:14;49.00;;;25.65;;
32485;SDS011;18935;52.236;21.134;2022-09-09T15:51:44;46.97;;;23.63;;
32485;SDS011;18935;52.236;21.134;2022-09-09T15:54:12;45.65;;;24.02;;
32485;SDS011;18935;52.236;21.134;2022-09-09T15:56:41;48.45;;;25.30;;
32485;SDS011;18935;52.236;21.134;2022-09-09T15:59:10;42.60;;;25.83;;
32485;SDS011;18935;52.236;21.134;2022-09-09T16:01:36;41.13;;;24.70;;
32485;SDS011;18935;52.236;21.134;2022-09-09T16:04:04;47.13;;;25.05;;
32485;SDS011;18935;52.236;21.134;2022-09-09T16:06:30;50.42;;;25.35;;
32485;SDS011;18935;52.236;21.134;2022-09-09T16:08:59;46.25;;;25.75;;
32485;SDS011;18935;52.236;21.134;2022-09-09T16:11:29;42.60;;;25.43;;
32485;SDS011;18935;52.236;21.134;2022-09-09T16:14:00;46.00;;;25.20;;
32485;SDS011;18935;52.236;21.134;2022-09-09T16:16:32;45.33;;;25.55;;
32485;SDS011;18935;52.236;21.134;2022-09-09T16:19:00;41.17;;;24.13;;
32485;SDS011;18935;52.236;21.134;2022-09-09T16:21:30;43.95;;;24.63;;
32485;SDS011;18935;52.236;21.134;2022-09-09T16:23:57;43.22;;;25.67;;
32485;SDS011;18935;52.236;21.134;2022-09-09T16:26:30;43.83;;;24.75;;
32485;SDS011;18935;52.236;21.134;2022-09-09T16:28:57;49.67;;;25.52;;
32485;SDS011;18935;52.236;21.134;2022-09-09T16:31:24;47.70;;;25.67;;
32485;SDS011;18935;52.236;21.134;2022-09-09T16:33:51;43.13;;;26.30;;
32485;SDS011;18935;52.236;21.134;2022-09-09T16:36:21;51.25;;;25.98;;
32485;SDS011;18935;52.236;21.134;2022-09-09T16:39:01;44.83;;;25.85;;
32485;SDS011;18935;52.236;21.134;2022-09-09T16:41:29;40.90;;;23.90;;